sensor_id;sensor_type;location;lat;lon;timestamp;P1;durP1;ratioP1;P2;durP2;ratioP2
10410;SDS011;5251;52.112;8.606;2023-06-26T00:00:13;35.65;;;33.85;;
10410;SDS011;5251;52.112;8.606;2023-06-26T00:02:40;32.92;;;31.30;;
10410;SDS011;5251;52.112;8.606;2023-06-26T00:05:06;34.38;;;32.67;;
10410;SDS011;5251;52.112;8.606;2023-06-26T00:07:31;34.13;;;32.33;;
10410;SDS011;5251;52.112;8.606;2023-06-26T00:10:00;32.45;;;30.85;;
10410;SDS011;5251;52.112;8.606;2023-06-26T00:12:27;32.08;;;30.48;;
10410;SDS011;5251;52.112;8.606;2023-06-26T00:14:53;33.33;;;31.63;;
10410;SDS011;5251;52.112;8.606;2023-06-26T00:17:19;33.50;;;31.70;;
10410;SDS011;5251;52.112;8.606;2023-06-26T00:19:44;33.53;;;31.83;;
10410;SDS011;5251;52.112;8.606;2023-06-26T00:22:10;32.20;;;30.60;;
10410;SDS011;5251;52.112;8.606;2023-06-26T00:24:36;33.05;;;31.17;;
10410;SDS011;5251;52.112;8.606;2023-06-26T00:27:02;31.15;;;29.55;;
10410;SDS011;5251;52.112;8.606;2023-06-26T00:29:27;31.05;;;29.50;;
10410;SDS011;5251;52.112;8.606;2023-06-26T00:31:53;30.10;;;28.60;;
10410;SDS011;5251;52.112;8.606;2023-06-26T00:34:18;30.75;;;29.15;;
10410;SDS011;5251;52.112;8.606;2023-06-26T00:36:44;31.35;;;29.65;;
10410;SDS011;5251;52.112;8.606;2023-06-26T00:39:10;31.73;;;30.02;;
10410;SDS011;5251;52.112;8.606;2023-06-26T00:41:36;31.20;;;29.60;;
10410;SDS011;5251;52.112;8.606;2023-06-26T00:44:03;30.42;;;28.92;;
10410;SDS011;5251;52.112;8.606;2023-06-26T00:46:29;29.52;;;28.02;;
10410;SDS011;5251;52.112;8.606;2023-06-26T00:48:55;29.23;;;27.73;;
10410;SDS011;5251;52.112;8.606;2023-06-26T00:51:25;29.67;;;28.17;;
10410;SDS011;5251;52.112;8.606;2023-06-26T00:53:52;30.33;;;28.75;;
10410;SDS011;5251;52.112;8.606;2023-06-26T00:56:18;29.08;;;27.58;;
10410;SDS011;5251;52.112;8.606;2023-06-26T00:58:44;30.27;;;28.77;;
10410;SDS011;5251;52.112;8.606;2023-06-26T01:01:10;28.55;;;27.05;;
10410;SDS011;5251;52.112;8.606;2023-06-26T01:03:41;27.58;;;26.08;;
10410;SDS011;5251;52.112;8.606;2023-06-26T01:06:11;27.20;;;25.67;;
10410;SDS011;5251;52.112;8.606;2023-06-26T01:08:39;27.02;;;25.55;;
10410;SDS011;5251;52.112;8.606;2023-06-26T01:11:06;27.38;;;25.98;;
10410;SDS011;5251;52.112;8.606;2023-06-26T01:13:32;27.55;;;26.15;;
10410;SDS011;5251;52.112;8.606;2023-06-26T01:15:59;26.65;;;25.15;;
10410;SDS011;5251;52.112;8.606;2023-06-26T01:18:25;25.98;;;24.48;;
10410;SDS011;5251;52.112;8.606;2023-06-26T01:20:51;26.23;;;24.73;;
10410;SDS011;5251;52.112;8.606;2023-06-26T01:26:29;24.15;;;22.85;;
10410;SDS011;5251;52.112;8.606;2023-06-26T01:29:00;24.80;;;23.33;;
10410;SDS011;5251;52.112;8.606;2023-06-26T01:31:27;23.00;;;21.70;;
10410;SDS011;5251;52.112;8.606;2023-06-26T01:33:55;24.05;;;22.67;;
10410;SDS011;5251;52.112;8.606;2023-06-26T01:36:22;23.25;;;21.95;;
10410;SDS011;5251;52.112;8.606;2023-06-26T01:38:48;22.65;;;21.35;;
10410;SDS011;5251;52.112;8.606;2023-06-26T01:41:14;22.10;;;20.90;;
10410;SDS011;5251;52.112;8.606;2023-06-26T01:46:48;21.08;;;19.98;;
10410;SDS011;5251;52.112;8.606;2023-06-26T01:49:31;21.92;;;20.83;;
10410;SDS011;5251;52.112;8.606;2023-06-26T01:52:03;21.90;;;20.75;;
10410;SDS011;5251;52.112;8.606;2023-06-26T01:54:33;21.35;;;20.15;;
10410;SDS011;5251;52.112;8.606;2023-06-26T01:57:04;20.52;;;19.42;;
10410;SDS011;5251;52.112;8.606;2023-06-26T01:59:31;21.02;;;19.92;;
10410;SDS011;5251;52.112;8.606;2023-06-26T02:02:00;21.27;;;20.08;;
10410;SDS011;5251;52.112;8.606;2023-06-26T02:04:26;20.13;;;19.02;;
10410;SDS011;5251;52.112;8.606;2023-06-26T02:06:51;19.98;;;18.75;;
10410;SDS011;5251;52.112;8.606;2023-06-26T02:09:17;19.02;;;17.92;;
10410;SDS011;5251;52.112;8.606;2023-06-26T02:11:42;18.77;;;17.75;;
10410;SDS011;5251;52.112;8.606;2023-06-26T02:14:08;19.15;;;17.92;;
10410;SDS011;5251;52.112;8.606;2023-06-26T02:16:35;19.50;;;18.33;;
10410;SDS011;5251;52.112;8.606;2023-06-26T02:19:00;19.23;;;18.02;;
10410;SDS011;5251;52.112;8.606;2023-06-26T02:21:26;19.70;;;18.50;;
10410;SDS011;5251;52.112;8.606;2023-06-26T02:23:51;19.23;;;17.92;;
10410;SDS011;5251;52.112;8.606;2023-06-26T02:26:17;19.00;;;17.90;;
10410;SDS011;5251;52.112;8.606;2023-06-26T02:28:43;18.30;;;17.27;;
10410;SDS011;5251;52.112;8.606;2023-06-26T02:31:08;18.33;;;17.30;;
10410;SDS011;5251;52.112;8.606;2023-06-26T02:33:34;18.02;;;17.02;;
10410;SDS011;5251;52.112;8.606;2023-06-26T02:35:59;18.60;;;17.48;;
10410;SDS011;5251;52.112;8.606;2023-06-26T02:38:25;17.20;;;16.10;;
10410;SDS011;5251;52.112;8.606;2023-06-26T02:40:50;17.92;;;16.73;;
10410;SDS011;5251;52.112;8.606;2023-06-26T02:43:16;17.67;;;16.60;;
10410;SDS011;5251;52.112;8.606;2023-06-26T02:45:42;17.45;;;16.45;;
10410;SDS011;5251;52.112;8.606;2023-06-26T02:48:07;17.42;;;16.33;;
10410;SDS011;5251;52.112;8.606;2023-06-26T02:50:33;17.65;;;16.58;;
10410;SDS011;5251;52.112;8.606;2023-06-26T02:52:59;16.48;;;15.32;;
10410;SDS011;5251;52.112;8.606;2023-06-26T02:55:25;16.27;;;15.27;;
10410;SDS011;5251;52.112;8.606;2023-06-26T02:57:52;16.88;;;15.88;;
10410;SDS011;5251;52.112;8.606;2023-06-26T03:00:17;16.67;;;15.68;;
10410;SDS011;5251;52.112;8.606;2023-06-26T03:02:43;15.48;;;14.43;;
10410;SDS011;5251;52.112;8.606;2023-06-26T03:05:09;15.00;;;13.98;;
10410;SDS011;5251;52.112;8.606;2023-06-26T03:07:34;16.70;;;15.60;;
10410;SDS011;5251;52.112;8.606;2023-06-26T03:10:00;16.45;;;15.45;;
10410;SDS011;5251;52.112;8.606;2023-06-26T03:12:25;15.15;;;14.25;;
10410;SDS011;5251;52.112;8.606;2023-06-26T03:14:51;15.27;;;14.27;;
10410;SDS011;5251;52.112;8.606;2023-06-26T03:17:17;15.32;;;14.27;;
10410;SDS011;5251;52.112;8.606;2023-06-26T03:19:42;15.77;;;14.77;;
10410;SDS011;5251;52.112;8.606;2023-06-26T03:22:08;15.23;;;14.32;;
10410;SDS011;5251;52.112;8.606;2023-06-26T03:24:33;15.05;;;14.05;;
10410;SDS011;5251;52.112;8.606;2023-06-26T03:26:59;15.35;;;14.27;;
10410;SDS011;5251;52.112;8.606;2023-06-26T03:29:25;15.13;;;14.10;;
10410;SDS011;5251;52.112;8.606;2023-06-26T03:31:50;14.88;;;13.93;;
10410;SDS011;5251;52.112;8.606;2023-06-26T03:34:16;14.82;;;13.73;;
10410;SDS011;5251;52.112;8.606;2023-06-26T03:36:41;15.23;;;14.13;;
10410;SDS011;5251;52.112;8.606;2023-06-26T03:39:07;15.13;;;14.13;;
10410;SDS011;5251;52.112;8.606;2023-06-26T03:41:33;15.80;;;14.68;;
10410;SDS011;5251;52.112;8.606;2023-06-26T03:43:59;14.70;;;13.80;;
10410;SDS011;5251;52.112;8.606;2023-06-26T03:46:25;15.07;;;14.18;;
10410;SDS011;5251;52.112;8.606;2023-06-26T03:48:51;15.10;;;14.02;;
10410;SDS011;5251;52.112;8.606;2023-06-26T03:51:17;16.35;;;15.35;;
10410;SDS011;5251;52.112;8.606;2023-06-26T03:53:42;15.77;;;14.88;;
10410;SDS011;5251;52.112;8.606;2023-06-26T03:56:08;16.60;;;15.60;;
10410;SDS011;5251;52.112;8.606;2023-06-26T03:58:33;16.83;;;15.82;;
10410;SDS011;5251;52.112;8.606;2023-06-26T04:00:59;16.23;;;15.23;;
10410;SDS011;5251;52.112;8.606;2023-06-26T04:03:25;15.68;;;14.77;;
10410;SDS011;5251;52.112;8.606;2023-06-26T04:05:51;15.93;;;14.93;;
10410;SDS011;5251;52.112;8.606;2023-06-26T04:08:16;16.42;;;15.40;;
10410;SDS011;5251;52.112;8.606;2023-06-26T04:10:42;16.92;;;15.82;;
10410;SDS011;5251;52.112;8.606;2023-06-26T04:13:10;17.38;;;16.17;;
10410;SDS011;5251;52.112;8.606;2023-06-26T04:15:36;16.95;;;15.65;;
10410;SDS011;5251;52.112;8.606;2023-06-26T04:18:02;15.82;;;14.73;;
10410;SDS011;5251;52.112;8.606;2023-06-26T04:20:28;16.77;;;15.77;;
10410;SDS011;5251;52.112;8.606;2023-06-26T04:22:53;17.02;;;16.10;;
10410;SDS011;5251;52.112;8.606;2023-06-26T04:25:19;16.85;;;15.85;;
10410;SDS011;5251;52.112;8.606;2023-06-26T04:27:45;18.33;;;17.13;;
10410;SDS011;5251;52.112;8.606;2023-06-26T04:30:10;19.40;;;18.20;;
10410;SDS011;5251;52.112;8.606;2023-06-26T04:32:37;18.58;;;17.40;;
10410;SDS011;5251;52.112;8.606;2023-06-26T04:35:02;19.08;;;17.95;;
10410;SDS011;5251;52.112;8.606;2023-06-26T04:37:28;19.50;;;18.40;;
10410;SDS011;5251;52.112;8.606;2023-06-26T04:39:54;21.02;;;19.92;;
10410;SDS011;5251;52.112;8.606;2023-06-26T04:42:19;20.00;;;18.90;;
10410;SDS011;5251;52.112;8.606;2023-06-26T04:44:46;21.10;;;19.92;;
10410;SDS011;5251;52.112;8.606;2023-06-26T04:47:12;20.98;;;19.88;;
10410;SDS011;5251;52.112;8.606;2023-06-26T04:49:40;20.50;;;19.30;;
10410;SDS011;5251;52.112;8.606;2023-06-26T04:52:08;22.48;;;21.05;;
10410;SDS011;5251;52.112;8.606;2023-06-26T04:54:33;22.00;;;20.70;;
10410;SDS011;5251;52.112;8.606;2023-06-26T04:56:59;22.33;;;21.05;;
10410;SDS011;5251;52.112;8.606;2023-06-26T04:59:25;21.55;;;20.42;;
10410;SDS011;5251;52.112;8.606;2023-06-26T05:01:50;24.45;;;23.05;;
10410;SDS011;5251;52.112;8.606;2023-06-26T05:04:16;22.95;;;21.75;;
10410;SDS011;5251;52.112;8.606;2023-06-26T05:06:41;24.35;;;22.98;;
10410;SDS011;5251;52.112;8.606;2023-06-26T05:09:07;24.02;;;22.60;;
10410;SDS011;5251;52.112;8.606;2023-06-26T05:11:33;26.15;;;24.63;;
10410;SDS011;5251;52.112;8.606;2023-06-26T05:13:58;30.50;;;28.95;;
10410;SDS011;5251;52.112;8.606;2023-06-26T05:16:24;33.42;;;31.63;;
10410;SDS011;5251;52.112;8.606;2023-06-26T05:18:49;43.10;;;40.88;;
10410;SDS011;5251;52.112;8.606;2023-06-26T05:21:15;43.25;;;41.15;;
10410;SDS011;5251;52.112;8.606;2023-06-26T05:23:41;46.78;;;44.47;;
10410;SDS011;5251;52.112;8.606;2023-06-26T05:26:09;48.13;;;45.92;;
10410;SDS011;5251;52.112;8.606;2023-06-26T05:28:36;50.78;;;48.42;;
10410;SDS011;5251;52.112;8.606;2023-06-26T05:31:02;58.03;;;55.15;;
10410;SDS011;5251;52.112;8.606;2023-06-26T05:33:30;56.38;;;53.75;;
10410;SDS011;5251;52.112;8.606;2023-06-26T05:35:59;58.42;;;55.58;;
10410;SDS011;5251;52.112;8.606;2023-06-26T05:38:28;55.47;;;52.88;;
10410;SDS011;5251;52.112;8.606;2023-06-26T05:40:54;42.13;;;40.13;;
10410;SDS011;5251;52.112;8.606;2023-06-26T05:43:20;31.05;;;29.50;;
10410;SDS011;5251;52.112;8.606;2023-06-26T05:45:46;22.77;;;21.17;;
10410;SDS011;5251;52.112;8.606;2023-06-26T05:48:13;13.10;;;12.27;;
10410;SDS011;5251;52.112;8.606;2023-06-26T05:50:39;10.35;;;9.65;;
10410;SDS011;5251;52.112;8.606;2023-06-26T05:53:07;7.95;;;7.35;;
10410;SDS011;5251;52.112;8.606;2023-06-26T05:55:33;7.28;;;6.68;;
10410;SDS011;5251;52.112;8.606;2023-06-26T05:57:58;10.15;;;7.35;;
10410;SDS011;5251;52.112;8.606;2023-06-26T06:00:26;7.15;;;6.65;;
10410;SDS011;5251;52.112;8.606;2023-06-26T06:02:53;7.50;;;6.97;;
10410;SDS011;5251;52.112;8.606;2023-06-26T06:05:19;6.80;;;6.15;;
10410;SDS011;5251;52.112;8.606;2023-06-26T06:07:45;6.57;;;5.97;;
10410;SDS011;5251;52.112;8.606;2023-06-26T06:10:11;8.35;;;6.40;;
10410;SDS011;5251;52.112;8.606;2023-06-26T06:12:37;7.20;;;5.75;;
10410;SDS011;5251;52.112;8.606;2023-06-26T06:15:02;7.57;;;5.93;;
10410;SDS011;5251;52.112;8.606;2023-06-26T06:17:28;6.88;;;6.28;;
10410;SDS011;5251;52.112;8.606;2023-06-26T06:19:54;6.38;;;5.80;;
10410;SDS011;5251;52.112;8.606;2023-06-26T06:22:19;6.75;;;6.22;;
10410;SDS011;5251;52.112;8.606;2023-06-26T06:24:45;7.07;;;6.30;;
10410;SDS011;5251;52.112;8.606;2023-06-26T06:27:12;8.60;;;6.93;;
10410;SDS011;5251;52.112;8.606;2023-06-26T06:29:38;7.65;;;6.40;;
10410;SDS011;5251;52.112;8.606;2023-06-26T06:32:03;6.50;;;6.00;;
10410;SDS011;5251;52.112;8.606;2023-06-26T06:34:29;7.40;;;6.22;;
10410;SDS011;5251;52.112;8.606;2023-06-26T06:36:55;8.13;;;7.32;;
10410;SDS011;5251;52.112;8.606;2023-06-26T06:39:20;8.02;;;7.20;;
10410;SDS011;5251;52.112;8.606;2023-06-26T06:41:46;7.97;;;7.18;;
10410;SDS011;5251;52.112;8.606;2023-06-26T06:44:11;7.57;;;6.97;;
10410;SDS011;5251;52.112;8.606;2023-06-26T06:46:37;8.18;;;7.47;;
10410;SDS011;5251;52.112;8.606;2023-06-26T06:49:02;8.93;;;7.60;;
10410;SDS011;5251;52.112;8.606;2023-06-26T06:51:29;9.43;;;8.52;;
10410;SDS011;5251;52.112;8.606;2023-06-26T06:53:54;9.52;;;8.80;;
10410;SDS011;5251;52.112;8.606;2023-06-26T06:56:20;10.10;;;9.35;;
10410;SDS011;5251;52.112;8.606;2023-06-26T06:58:45;10.23;;;9.35;;
10410;SDS011;5251;52.112;8.606;2023-06-26T07:01:12;9.15;;;8.35;;
10410;SDS011;5251;52.112;8.606;2023-06-26T07:03:38;8.85;;;8.05;;
10410;SDS011;5251;52.112;8.606;2023-06-26T07:06:04;8.70;;;7.57;;
10410;SDS011;5251;52.112;8.606;2023-06-26T07:08:30;10.13;;;9.23;;
10410;SDS011;5251;52.112;8.606;2023-06-26T07:10:56;9.50;;;8.65;;
10410;SDS011;5251;52.112;8.606;2023-06-26T07:13:21;9.98;;;9.05;;
10410;SDS011;5251;52.112;8.606;2023-06-26T07:15:47;9.48;;;8.57;;
10410;SDS011;5251;52.112;8.606;2023-06-26T07:18:13;8.55;;;7.78;;
10410;SDS011;5251;52.112;8.606;2023-06-26T07:20:39;8.73;;;7.85;;
10410;SDS011;5251;52.112;8.606;2023-06-26T07:23:05;8.05;;;7.32;;
10410;SDS011;5251;52.112;8.606;2023-06-26T07:25:30;8.63;;;7.72;;
10410;SDS011;5251;52.112;8.606;2023-06-26T07:27:56;7.75;;;7.15;;
10410;SDS011;5251;52.112;8.606;2023-06-26T07:30:21;8.93;;;8.02;;
10410;SDS011;5251;52.112;8.606;2023-06-26T07:32:47;8.50;;;7.70;;
10410;SDS011;5251;52.112;8.606;2023-06-26T07:35:14;8.27;;;7.38;;
10410;SDS011;5251;52.112;8.606;2023-06-26T07:37:40;7.95;;;7.25;;
10410;SDS011;5251;52.112;8.606;2023-06-26T07:40:06;8.32;;;7.50;;
10410;SDS011;5251;52.112;8.606;2023-06-26T07:42:32;8.15;;;7.32;;
10410;SDS011;5251;52.112;8.606;2023-06-26T07:44:57;8.00;;;7.30;;
10410;SDS011;5251;52.112;8.606;2023-06-26T07:47:23;7.88;;;7.07;;
10410;SDS011;5251;52.112;8.606;2023-06-26T07:49:49;9.43;;;7.55;;
10410;SDS011;5251;52.112;8.606;2023-06-26T07:52:14;9.18;;;8.27;;
10410;SDS011;5251;52.112;8.606;2023-06-26T07:54:40;8.43;;;7.63;;
10410;SDS011;5251;52.112;8.606;2023-06-26T07:57:06;9.23;;;8.32;;
10410;SDS011;5251;52.112;8.606;2023-06-26T07:59:33;8.60;;;7.80;;
10410;SDS011;5251;52.112;8.606;2023-06-26T08:01:59;8.98;;;8.13;;
10410;SDS011;5251;52.112;8.606;2023-06-26T08:04:26;8.90;;;8.10;;
10410;SDS011;5251;52.112;8.606;2023-06-26T08:06:55;8.80;;;8.10;;
10410;SDS011;5251;52.112;8.606;2023-06-26T08:09:23;8.88;;;8.07;;
10410;SDS011;5251;52.112;8.606;2023-06-26T08:11:50;9.43;;;8.52;;
10410;SDS011;5251;52.112;8.606;2023-06-26T08:14:16;8.35;;;7.65;;
10410;SDS011;5251;52.112;8.606;2023-06-26T08:16:43;9.20;;;8.40;;
10410;SDS011;5251;52.112;8.606;2023-06-26T08:19:09;8.80;;;7.95;;
10410;SDS011;5251;52.112;8.606;2023-06-26T08:21:35;8.65;;;7.68;;
10410;SDS011;5251;52.112;8.606;2023-06-26T08:24:01;8.45;;;7.68;;
10410;SDS011;5251;52.112;8.606;2023-06-26T08:26:27;8.45;;;7.65;;
10410;SDS011;5251;52.112;8.606;2023-06-26T08:28:53;8.13;;;7.47;;
10410;SDS011;5251;52.112;8.606;2023-06-26T08:31:19;9.57;;;8.50;;
10410;SDS011;5251;52.112;8.606;2023-06-26T08:33:45;9.57;;;7.60;;
10410;SDS011;5251;52.112;8.606;2023-06-26T08:36:11;9.82;;;8.00;;
10410;SDS011;5251;52.112;8.606;2023-06-26T08:38:37;8.45;;;7.63;;
10410;SDS011;5251;52.112;8.606;2023-06-26T08:41:05;8.68;;;7.32;;
10410;SDS011;5251;52.112;8.606;2023-06-26T08:43:31;7.15;;;6.45;;
10410;SDS011;5251;52.112;8.606;2023-06-26T08:45:56;7.85;;;6.93;;
10410;SDS011;5251;52.112;8.606;2023-06-26T08:48:22;8.75;;;6.47;;
10410;SDS011;5251;52.112;8.606;2023-06-26T08:50:49;7.32;;;6.65;;
10410;SDS011;5251;52.112;8.606;2023-06-26T08:53:21;7.95;;;7.03;;
10410;SDS011;5251;52.112;8.606;2023-06-26T08:55:59;7.28;;;6.60;;
10410;SDS011;5251;52.112;8.606;2023-06-26T08:58:25;7.95;;;7.25;;
10410;SDS011;5251;52.112;8.606;2023-06-26T09:00:50;8.52;;;7.13;;
10410;SDS011;5251;52.112;8.606;2023-06-26T09:03:16;7.82;;;7.07;;
10410;SDS011;5251;52.112;8.606;2023-06-26T09:05:42;7.65;;;6.93;;
10410;SDS011;5251;52.112;8.606;2023-06-26T09:08:08;8.50;;;7.30;;
10410;SDS011;5251;52.112;8.606;2023-06-26T09:10:34;8.13;;;7.20;;
10410;SDS011;5251;52.112;8.606;2023-06-26T09:12:59;7.28;;;6.57;;
10410;SDS011;5251;52.112;8.606;2023-06-26T09:15:36;7.90;;;7.10;;
10410;SDS011;5251;52.112;8.606;2023-06-26T09:18:08;7.82;;;7.07;;
10410;SDS011;5251;52.112;8.606;2023-06-26T09:20:34;9.68;;;7.50;;
10410;SDS011;5251;52.112;8.606;2023-06-26T09:22:59;7.88;;;6.80;;
10410;SDS011;5251;52.112;8.606;2023-06-26T09:25:27;7.47;;;6.78;;
10410;SDS011;5251;52.112;8.606;2023-06-26T09:27:53;8.25;;;7.40;;
10410;SDS011;5251;52.112;8.606;2023-06-26T09:30:19;8.52;;;7.47;;
10410;SDS011;5251;52.112;8.606;2023-06-26T09:32:45;7.78;;;6.68;;
10410;SDS011;5251;52.112;8.606;2023-06-26T09:35:11;8.25;;;6.68;;
10410;SDS011;5251;52.112;8.606;2023-06-26T09:37:37;7.25;;;6.65;;
10410;SDS011;5251;52.112;8.606;2023-06-26T09:40:03;7.90;;;5.97;;
10410;SDS011;5251;52.112;8.606;2023-06-26T09:42:29;6.50;;;5.70;;
10410;SDS011;5251;52.112;8.606;2023-06-26T09:44:56;8.25;;;6.28;;
10410;SDS011;5251;52.112;8.606;2023-06-26T09:47:22;7.22;;;6.63;;
10410;SDS011;5251;52.112;8.606;2023-06-26T09:49:48;7.47;;;6.70;;
10410;SDS011;5251;52.112;8.606;2023-06-26T09:52:14;8.65;;;7.20;;
10410;SDS011;5251;52.112;8.606;2023-06-26T09:54:50;7.55;;;6.60;;
10410;SDS011;5251;52.112;8.606;2023-06-26T09:57:16;7.32;;;6.63;;
10410;SDS011;5251;52.112;8.606;2023-06-26T09:59:43;7.18;;;6.47;;
10410;SDS011;5251;52.112;8.606;2023-06-26T10:02:10;7.90;;;7.13;;
10410;SDS011;5251;52.112;8.606;2023-06-26T10:04:37;7.65;;;6.80;;
10410;SDS011;5251;52.112;8.606;2023-06-26T10:07:06;8.60;;;6.50;;
10410;SDS011;5251;52.112;8.606;2023-06-26T10:09:40;9.77;;;6.10;;
10410;SDS011;5251;52.112;8.606;2023-06-26T10:12:18;7.20;;;6.60;;
10410;SDS011;5251;52.112;8.606;2023-06-26T10:14:48;7.53;;;6.63;;
10410;SDS011;5251;52.112;8.606;2023-06-26T10:17:19;7.50;;;6.80;;
10410;SDS011;5251;52.112;8.606;2023-06-26T10:19:46;6.90;;;6.28;;
10410;SDS011;5251;52.112;8.606;2023-06-26T10:22:14;7.60;;;6.85;;
10410;SDS011;5251;52.112;8.606;2023-06-26T10:24:42;7.50;;;6.65;;
10410;SDS011;5251;52.112;8.606;2023-06-26T10:29:53;6.97;;;6.25;;
10410;SDS011;5251;52.112;8.606;2023-06-26T10:32:20;6.82;;;6.22;;
10410;SDS011;5251;52.112;8.606;2023-06-26T10:34:49;6.95;;;6.35;;
10410;SDS011;5251;52.112;8.606;2023-06-26T10:37:16;7.05;;;6.35;;
10410;SDS011;5251;52.112;8.606;2023-06-26T10:39:51;6.57;;;5.97;;
10410;SDS011;5251;52.112;8.606;2023-06-26T10:42:20;7.30;;;5.85;;
10410;SDS011;5251;52.112;8.606;2023-06-26T10:45:08;6.00;;;5.47;;
10410;SDS011;5251;52.112;8.606;2023-06-26T10:47:36;6.03;;;5.43;;
10410;SDS011;5251;52.112;8.606;2023-06-26T10:55:34;6.05;;;5.55;;
10410;SDS011;5251;52.112;8.606;2023-06-26T10:58:00;6.20;;;5.53;;
10410;SDS011;5251;52.112;8.606;2023-06-26T11:00:29;7.53;;;5.28;;
10410;SDS011;5251;52.112;8.606;2023-06-26T11:02:54;5.43;;;4.97;;
10410;SDS011;5251;52.112;8.606;2023-06-26T11:05:24;8.13;;;5.55;;
10410;SDS011;5251;52.112;8.606;2023-06-26T11:08:06;7.20;;;6.03;;
10410;SDS011;5251;52.112;8.606;2023-06-26T11:10:52;5.18;;;4.68;;
10410;SDS011;5251;52.112;8.606;2023-06-26T11:13:20;6.82;;;4.47;;
10410;SDS011;5251;52.112;8.606;2023-06-26T11:15:46;5.93;;;4.35;;
10410;SDS011;5251;52.112;8.606;2023-06-26T11:18:13;4.70;;;4.05;;
10410;SDS011;5251;52.112;8.606;2023-06-26T11:20:39;4.63;;;4.22;;
10410;SDS011;5251;52.112;8.606;2023-06-26T11:23:05;5.10;;;3.88;;
10410;SDS011;5251;52.112;8.606;2023-06-26T11:25:34;4.70;;;3.88;;
10410;SDS011;5251;52.112;8.606;2023-06-26T11:28:01;4.38;;;3.97;;
10410;SDS011;5251;52.112;8.606;2023-06-26T11:30:28;4.53;;;4.03;;
10410;SDS011;5251;52.112;8.606;2023-06-26T11:33:01;6.05;;;4.03;;
10410;SDS011;5251;52.112;8.606;2023-06-26T11:35:31;4.43;;;4.00;;
10410;SDS011;5251;52.112;8.606;2023-06-26T11:37:57;4.15;;;3.85;;
10410;SDS011;5251;52.112;8.606;2023-06-26T11:40:25;4.00;;;3.67;;
10410;SDS011;5251;52.112;8.606;2023-06-26T11:42:57;3.60;;;3.30;;
10410;SDS011;5251;52.112;8.606;2023-06-26T11:45:24;3.97;;;3.67;;
10410;SDS011;5251;52.112;8.606;2023-06-26T11:47:49;3.88;;;3.40;;
10410;SDS011;5251;52.112;8.606;2023-06-26T11:50:16;3.72;;;3.42;;
10410;SDS011;5251;52.112;8.606;2023-06-26T11:52:45;3.42;;;3.10;;
10410;SDS011;5251;52.112;8.606;2023-06-26T11:55:17;4.70;;;3.25;;
10410;SDS011;5251;52.112;8.606;2023-06-26T11:57:47;3.20;;;2.85;;
10410;SDS011;5251;52.112;8.606;2023-06-26T12:00:14;3.33;;;2.75;;
10410;SDS011;5251;52.112;8.606;2023-06-26T12:02:41;3.72;;;3.25;;
10410;SDS011;5251;52.112;8.606;2023-06-26T12:05:09;3.33;;;3.03;;
10410;SDS011;5251;52.112;8.606;2023-06-26T12:07:35;3.30;;;3.00;;
10410;SDS011;5251;52.112;8.606;2023-06-26T12:10:02;3.28;;;3.00;;
10410;SDS011;5251;52.112;8.606;2023-06-26T12:12:31;3.85;;;3.00;;
10410;SDS011;5251;52.112;8.606;2023-06-26T12:14:58;3.05;;;2.75;;
10410;SDS011;5251;52.112;8.606;2023-06-26T12:17:25;3.70;;;3.30;;
10410;SDS011;5251;52.112;8.606;2023-06-26T12:19:50;3.60;;;3.25;;
10410;SDS011;5251;52.112;8.606;2023-06-26T12:22:16;3.20;;;2.90;;
10410;SDS011;5251;52.112;8.606;2023-06-26T12:24:43;3.28;;;2.97;;
10410;SDS011;5251;52.112;8.606;2023-06-26T12:27:10;3.10;;;2.80;;
10410;SDS011;5251;52.112;8.606;2023-06-26T12:29:49;3.17;;;2.97;;
10410;SDS011;5251;52.112;8.606;2023-06-26T12:32:19;3.40;;;3.10;;
10410;SDS011;5251;52.112;8.606;2023-06-26T12:34:48;3.33;;;3.08;;
10410;SDS011;5251;52.112;8.606;2023-06-26T12:37:15;3.67;;;2.85;;
10410;SDS011;5251;52.112;8.606;2023-06-26T12:39:51;3.95;;;3.22;;
10410;SDS011;5251;52.112;8.606;2023-06-26T12:42:18;3.35;;;2.85;;
10410;SDS011;5251;52.112;8.606;2023-06-26T12:44:47;3.70;;;3.30;;
10410;SDS011;5251;52.112;8.606;2023-06-26T12:47:14;3.28;;;3.05;;
10410;SDS011;5251;52.112;8.606;2023-06-26T12:49:40;3.33;;;2.90;;
10410;SDS011;5251;52.112;8.606;2023-06-26T12:52:11;4.90;;;4.50;;
10410;SDS011;5251;52.112;8.606;2023-06-26T12:54:40;4.32;;;4.03;;
10410;SDS011;5251;52.112;8.606;2023-06-26T12:57:07;4.40;;;4.05;;
10410;SDS011;5251;52.112;8.606;2023-06-26T12:59:33;4.18;;;3.78;;
10410;SDS011;5251;52.112;8.606;2023-06-26T13:02:00;4.30;;;3.90;;
10410;SDS011;5251;52.112;8.606;2023-06-26T13:04:26;4.20;;;3.78;;
10410;SDS011;5251;52.112;8.606;2023-06-26T13:06:52;3.97;;;3.60;;
10410;SDS011;5251;52.112;8.606;2023-06-26T13:09:20;4.15;;;3.72;;
10410;SDS011;5251;52.112;8.606;2023-06-26T13:11:46;3.78;;;3.47;;
10410;SDS011;5251;52.112;8.606;2023-06-26T13:14:11;3.95;;;3.53;;
10410;SDS011;5251;52.112;8.606;2023-06-26T13:16:37;4.15;;;3.70;;
10410;SDS011;5251;52.112;8.606;2023-06-26T13:19:03;3.97;;;3.67;;
10410;SDS011;5251;52.112;8.606;2023-06-26T13:21:29;4.75;;;4.35;;
10410;SDS011;5251;52.112;8.606;2023-06-26T13:23:55;3.83;;;3.53;;
10410;SDS011;5251;52.112;8.606;2023-06-26T13:26:21;4.03;;;3.63;;
10410;SDS011;5251;52.112;8.606;2023-06-26T13:28:48;3.72;;;3.42;;
10410;SDS011;5251;52.112;8.606;2023-06-26T13:31:14;4.20;;;3.80;;
10410;SDS011;5251;52.112;8.606;2023-06-26T13:33:40;4.13;;;3.83;;
10410;SDS011;5251;52.112;8.606;2023-06-26T13:36:06;3.90;;;3.60;;
10410;SDS011;5251;52.112;8.606;2023-06-26T13:38:34;4.05;;;3.75;;
10410;SDS011;5251;52.112;8.606;2023-06-26T13:41:00;3.63;;;3.42;;
10410;SDS011;5251;52.112;8.606;2023-06-26T13:43:26;4.90;;;3.72;;
10410;SDS011;5251;52.112;8.606;2023-06-26T13:45:53;3.17;;;2.97;;
10410;SDS011;5251;52.112;8.606;2023-06-26T13:48:19;4.00;;;3.55;;
10410;SDS011;5251;52.112;8.606;2023-06-26T13:50:45;4.43;;;3.97;;
10410;SDS011;5251;52.112;8.606;2023-06-26T13:53:12;3.78;;;3.30;;
10410;SDS011;5251;52.112;8.606;2023-06-26T13:55:38;3.90;;;3.42;;
10410;SDS011;5251;52.112;8.606;2023-06-26T13:58:04;5.20;;;3.05;;
10410;SDS011;5251;52.112;8.606;2023-06-26T14:00:30;5.03;;;3.38;;
10410;SDS011;5251;52.112;8.606;2023-06-26T14:02:58;6.57;;;3.15;;
10410;SDS011;5251;52.112;8.606;2023-06-26T14:05:28;3.45;;;3.15;;
10410;SDS011;5251;52.112;8.606;2023-06-26T14:07:54;3.63;;;3.33;;
10410;SDS011;5251;52.112;8.606;2023-06-26T14:10:20;5.15;;;3.50;;
10410;SDS011;5251;52.112;8.606;2023-06-26T14:12:46;3.90;;;3.25;;
10410;SDS011;5251;52.112;8.606;2023-06-26T14:15:12;4.97;;;3.40;;
10410;SDS011;5251;52.112;8.606;2023-06-26T14:17:37;5.43;;;3.47;;
10410;SDS011;5251;52.112;8.606;2023-06-26T14:20:05;3.83;;;3.08;;
10410;SDS011;5251;52.112;8.606;2023-06-26T14:22:35;3.67;;;3.25;;
10410;SDS011;5251;52.112;8.606;2023-06-26T14:25:01;8.43;;;3.28;;
10410;SDS011;5251;52.112;8.606;2023-06-26T14:27:27;4.72;;;3.55;;
10410;SDS011;5251;52.112;8.606;2023-06-26T14:29:53;3.55;;;3.25;;
10410;SDS011;5251;52.112;8.606;2023-06-26T14:32:19;4.40;;;3.42;;
10410;SDS011;5251;52.112;8.606;2023-06-26T14:34:44;4.40;;;3.20;;
10410;SDS011;5251;52.112;8.606;2023-06-26T14:37:10;3.28;;;2.97;;
10410;SDS011;5251;52.112;8.606;2023-06-26T14:39:35;6.03;;;3.22;;
10410;SDS011;5251;52.112;8.606;2023-06-26T14:42:03;3.78;;;3.20;;
10410;SDS011;5251;52.112;8.606;2023-06-26T14:44:29;6.28;;;3.45;;
10410;SDS011;5251;52.112;8.606;2023-06-26T14:46:55;3.38;;;3.00;;
10410;SDS011;5251;52.112;8.606;2023-06-26T14:49:20;4.32;;;2.60;;
10410;SDS011;5251;52.112;8.606;2023-06-26T14:51:46;3.55;;;3.22;;
10410;SDS011;5251;52.112;8.606;2023-06-26T14:54:12;4.57;;;3.15;;
10410;SDS011;5251;52.112;8.606;2023-06-26T14:56:37;5.18;;;2.92;;
10410;SDS011;5251;52.112;8.606;2023-06-26T14:59:03;2.80;;;2.53;;
10410;SDS011;5251;52.112;8.606;2023-06-26T15:01:29;3.80;;;3.00;;